Time;durP1;ratioP1;P1;durP2;ratioP2;P2;SDS_P1;SDS_P2;PMS_P1;PMS_P2;Temp;Humidity;BMP_temperature;BMP_pressure;BME280_temperature;BME280_humidity;BME280_pressure;Samples;Min_cycle;Max_cycle;Signal;HPM_P1;HPM_P2
2021/11/06 00:00:24;;;;;;;12.30;8.83;;;;;;;;;;4944434;28;20186;-86
2021/11/06 00:03:29;;;;;;;10.80;7.73;;;;;;;;;;4957253;28;20214;-87
2021/11/06 00:06:34;;;;;;;13.83;9.47;;;;;;;;;;4963662;28;20194;-86
2021/11/06 00:09:39;;;;;;;15.57;9.07;;;;;;;;;;4974164;28;20175;-87
2021/11/06 00:12:44;;;;;;;12.40;7.93;;;;;;;;;;4971024;28;20195;-87
2021/11/06 00:15:49;;;;;;;15.90;9.67;;;;;;;;;;4956779;28;20547;-87
2021/11/06 00:18:54;;;;;;;13.03;8.23;;;;;;;;;;4955435;28;20179;-87
2021/11/06 00:21:58;;;;;;;13.50;8.13;;;;;;;;;;4966532;28;20183;-87
2021/11/06 00:25:04;;;;;;;12.43;8.63;;;;;;;;;;4954983;28;20226;-87
2021/11/06 00:28:08;;;;;;;11.93;8.30;;;;;;;;;;4943154;28;20202;-86
2021/11/06 00:31:12;;;;;;;13.40;8.73;;;;;;;;;;4953396;28;20198;-86
2021/11/06 00:34:16;;;;;;;10.83;8.37;;;;;;;;;;4943226;28;20219;-86
2021/11/06 00:37:20;;;;;;;13.63;8.83;;;;;;;;;;4966106;28;20623;-86
2021/11/06 00:40:25;;;;;;;17.00;8.80;;;;;;;;;;4954188;28;20183;-86
2021/11/06 00:43:29;;;;;;;14.37;9.10;;;;;;;;;;4965872;28;20223;-86
2021/11/06 00:46:33;;;;;;;10.10;7.67;;;;;;;;;;4976806;28;20198;-86
2021/11/06 00:49:38;;;;;;;13.93;8.37;;;;;;;;;;4942885;28;20673;-86
2021/11/06 00:52:47;;;;;;;9.57;7.73;;;;;;;;;;4954174;28;20182;-86
2021/11/06 00:55:51;;;;;;;10.27;7.90;;;;;;;;;;4942929;28;20230;-86
2021/11/06 00:58:55;;;;;;;12.83;8.13;;;;;;;;;;4953855;28;20622;-86
2021/11/06 01:02:00;;;;;;;12.50;8.83;;;;;;;;;;4952326;28;20183;-86
2021/11/06 01:05:07;;;;;;;13.07;8.83;;;;;;;;;;4942934;28;20223;-86
2021/11/06 01:08:12;;;;;;;11.73;8.13;;;;;;;;;;4947399;28;20183;-86
2021/11/06 01:11:17;;;;;;;12.97;8.73;;;;;;;;;;4973392;28;20175;-86
2021/11/06 01:14:21;;;;;;;13.43;9.33;;;;;;;;;;4962647;28;20219;-87
2021/11/06 01:17:25;;;;;;;12.03;8.33;;;;;;;;;;4962048;28;20175;-86
2021/11/06 01:20:30;;;;;;;11.37;8.77;;;;;;;;;;4961952;28;20183;-86
2021/11/06 01:23:35;;;;;;;12.40;8.10;;;;;;;;;;4971673;28;20226;-87
2021/11/06 01:26:40;;;;;;;11.20;7.93;;;;;;;;;;4961637;28;20187;-86
2021/11/06 01:29:44;;;;;;;10.50;7.63;;;;;;;;;;4972550;28;20175;-87
2021/11/06 01:32:50;;;;;;;11.63;8.23;;;;;;;;;;4966975;28;20183;-87
2021/11/06 01:35:54;;;;;;;12.37;8.13;;;;;;;;;;4972295;28;20218;-86
2021/11/06 01:38:58;;;;;;;16.37;9.03;;;;;;;;;;4961690;28;20195;-87
2021/11/06 01:42:03;;;;;;;13.30;8.90;;;;;;;;;;4961233;28;20175;-86
2021/11/06 01:45:09;;;;;;;14.33;9.47;;;;;;;;;;4961612;28;20214;-86
2021/11/06 01:48:13;;;;;;;13.23;8.63;;;;;;;;;;4942391;28;20183;-86
2021/11/06 01:51:17;;;;;;;12.13;8.47;;;;;;;;;;4953518;28;20182;-86
2021/11/06 01:54:23;;;;;;;14.53;8.70;;;;;;;;;;4942433;28;20226;-86
2021/11/06 01:57:28;;;;;;;15.57;9.27;;;;;;;;;;4942525;28;20210;-86
2021/11/06 02:00:32;;;;;;;12.20;8.67;;;;;;;;;;4942009;28;20183;-86
2021/11/06 02:03:37;;;;;;;12.23;8.90;;;;;;;;;;4953024;28;20222;-86
2021/11/06 02:06:41;;;;;;;14.63;10.10;;;;;;;;;;4952764;28;20650;-87
2021/11/06 02:09:45;;;;;;;17.67;8.43;;;;;;;;;;4942026;28;20202;-86
2021/11/06 02:12:49;;;;;;;12.90;8.50;;;;;;;;;;4942071;28;20183;-86
2021/11/06 02:15:54;;;;;;;11.83;8.33;;;;;;;;;;4952215;28;20214;-86
2021/11/06 02:18:58;;;;;;;17.37;9.47;;;;;;;;;;4952346;28;20183;-86
2021/11/06 02:22:03;;;;;;;11.97;8.80;;;;;;;;;;4952391;28;20183;-86
2021/11/06 02:25:08;;;;;;;16.83;9.37;;;;;;;;;;4952458;28;20227;-86
2021/11/06 02:28:13;;;;;;;15.20;9.33;;;;;;;;;;4941585;28;20198;-86
2021/11/06 02:31:17;;;;;;;14.67;9.23;;;;;;;;;;4941516;28;20179;-86
2021/11/06 02:34:22;;;;;;;14.50;10.13;;;;;;;;;;4963179;28;20218;-87
2021/11/06 02:37:26;;;;;;;13.37;9.03;;;;;;;;;;4983133;28;20226;-87
2021/11/06 02:40:31;;;;;;;14.43;9.60;;;;;;;;;;4972225;28;20179;-86
2021/11/06 02:43:35;;;;;;;14.43;9.90;;;;;;;;;;4972341;28;20198;-87
2021/11/06 02:46:41;;;;;;;15.33;10.00;;;;;;;;;;4972561;28;20159;-86
2021/11/06 02:49:46;;;;;;;14.83;9.53;;;;;;;;;;4960103;28;20179;-87
2021/11/06 02:52:50;;;;;;;14.13;9.13;;;;;;;;;;4961477;28;20191;-87
2021/11/06 02:55:54;;;;;;;13.53;8.93;;;;;;;;;;4955824;28;20207;-87
2021/11/06 02:58:58;;;;;;;15.70;9.07;;;;;;;;;;4978627;28;20167;-86
2021/11/06 03:02:03;;;;;;;14.03;8.77;;;;;;;;;;4980681;28;20198;-87
2021/11/06 03:05:11;;;;;;;12.50;8.27;;;;;;;;;;4965254;28;20226;-87
2021/11/06 03:08:15;;;;;;;14.37;9.77;;;;;;;;;;4956040;28;20618;-87
2021/11/06 03:11:19;;;;;;;12.20;8.83;;;;;;;;;;4955362;28;20179;-87
2021/11/06 03:14:25;;;;;;;15.07;9.50;;;;;;;;;;4944638;28;20222;-87
2021/11/06 03:17:29;;;;;;;12.37;8.37;;;;;;;;;;4944523;28;20215;-87
2021/11/06 03:20:33;;;;;;;10.70;8.07;;;;;;;;;;4966125;28;20214;-87
2021/11/06 03:23:37;;;;;;;11.97;8.50;;;;;;;;;;4954976;28;20222;-87
2021/11/06 03:26:42;;;;;;;13.83;8.70;;;;;;;;;;4955282;28;20183;-87
2021/11/06 03:29:46;;;;;;;15.20;10.20;;;;;;;;;;4944210;28;20182;-87
2021/11/06 03:32:50;;;;;;;14.20;10.23;;;;;;;;;;4943981;28;20179;-87
2021/11/06 03:35:54;;;;;;;14.17;10.07;;;;;;;;;;4943947;28;20175;-86
2021/11/06 03:38:58;;;;;;;17.77;10.63;;;;;;;;;;4954869;28;20175;-87
2021/11/06 03:42:04;;;;;;;12.73;9.27;;;;;;;;;;4944491;28;20186;-87
2021/11/06 03:45:10;;;;;;;13.57;9.50;;;;;;;;;;4943658;28;20214;-87
2021/11/06 03:48:14;;;;;;;16.57;10.30;;;;;;;;;;4943741;28;20634;-86
2021/11/06 03:51:19;;;;;;;18.00;11.30;;;;;;;;;;4954870;28;20186;-87
2021/11/06 03:54:24;;;;;;;18.90;11.67;;;;;;;;;;4943562;28;20222;-86
2021/11/06 03:57:28;;;;;;;19.77;11.67;;;;;;;;;;4943749;28;20206;-87
2021/11/06 04:00:32;;;;;;;18.13;11.30;;;;;;;;;;4943694;28;20179;-87
2021/11/06 04:03:36;;;;;;;19.73;12.30;;;;;;;;;;4953973;28;20218;-86
2021/11/06 04:06:40;;;;;;;16.37;10.57;;;;;;;;;;4965067;28;20198;-86
2021/11/06 04:09:44;;;;;;;17.40;10.97;;;;;;;;;;4965108;28;20206;-87
2021/11/06 04:12:48;;;;;;;18.97;11.70;;;;;;;;;;4943012;28;20563;-87
2021/11/06 04:15:52;;;;;;;17.87;11.53;;;;;;;;;;4943341;28;20202;-87
2021/11/06 04:18:56;;;;;;;16.17;11.03;;;;;;;;;;4943294;28;20183;-87
2021/11/06 04:22:00;;;;;;;18.33;11.57;;;;;;;;;;4943654;28;20178;-87
2021/11/06 04:25:07;;;;;;;15.67;9.90;;;;;;;;;;4943056;28;20230;-87
2021/11/06 04:28:12;;;;;;;16.30;10.63;;;;;;;;;;4954352;28;20176;-87
2021/11/06 04:31:16;;;;;;;19.10;11.30;;;;;;;;;;4954169;28;20630;-87
2021/11/06 04:34:20;;;;;;;17.73;11.10;;;;;;;;;;4943213;28;20226;-87
2021/11/06 04:37:24;;;;;;;17.63;11.30;;;;;;;;;;4943667;28;20222;-86
2021/11/06 04:40:29;;;;;;;18.53;11.57;;;;;;;;;;4954549;28;20203;-87
2021/11/06 04:43:34;;;;;;;25.03;14.37;;;;;;;;;;4964715;28;20218;-87
2021/11/06 04:46:38;;;;;;;20.57;12.90;;;;;;;;;;4942997;28;20175;-86
2021/11/06 04:49:42;;;;;;;21.40;14.10;;;;;;;;;;4953565;28;20186;-87
2021/11/06 04:52:47;;;;;;;20.00;11.90;;;;;;;;;;4942794;28;20183;-87
2021/11/06 04:55:51;;;;;;;18.83;12.27;;;;;;;;;;4964494;28;20544;-86
2021/11/06 04:58:55;;;;;;;22.50;13.87;;;;;;;;;;4953868;28;20653;-87
2021/11/06 05:02:00;;;;;;;20.17;12.10;;;;;;;;;;4952145;28;20182;-87
2021/11/06 05:05:06;;;;;;;21.97;13.33;;;;;;;;;;4961708;28;20218;-86
2021/11/06 05:08:11;;;;;;;25.87;15.47;;;;;;;;;;4973534;28;20175;-86
2021/11/06 05:11:15;;;;;;;24.43;14.90;;;;;;;;;;4962505;28;20179;-86
2021/11/06 05:14:20;;;;;;;20.97;12.97;;;;;;;;;;4946124;28;20218;-86
2021/11/06 05:17:24;;;;;;;21.17;13.67;;;;;;;;;;4942795;28;20598;-86
2021/11/06 05:20:29;;;;;;;19.40;11.80;;;;;;;;;;4943427;28;20187;-86
2021/11/06 05:23:33;;;;;;;19.40;12.63;;;;;;;;;;4954953;28;20231;-86
2021/11/06 05:26:38;;;;;;;19.43;12.50;;;;;;;;;;4954600;28;20179;-86
2021/11/06 05:29:42;;;;;;;19.27;12.43;;;;;;;;;;4965736;28;20636;-87
2021/11/06 05:32:47;;;;;;;19.53;12.57;;;;;;;;;;4943701;28;21167;-86
2021/11/06 05:35:51;;;;;;;25.53;14.47;;;;;;;;;;4944740;28;20543;-87
2021/11/06 05:38:56;;;;;;;26.60;15.20;;;;;;;;;;4943204;28;20535;-87
2021/11/06 05:42:03;;;;;;;29.03;15.57;;;;;;;;;;4941872;28;20554;-87
2021/11/06 05:45:09;;;;;;;79.00;16.23;;;;;;;;;;4952622;28;21208;-86
2021/11/06 05:48:13;;;;;;;119.60;13.93;;;;;;;;;;4941930;28;20546;-87
2021/11/06 05:51:17;;;;;;;60.60;11.60;;;;;;;;;;4941787;28;20566;-86
2021/11/06 05:54:22;;;;;;;104.23;12.57;;;;;;;;;;4942144;28;20630;-86
2021/11/06 05:57:27;;;;;;;20.77;11.57;;;;;;;;;;4942301;28;21247;-86
2021/11/06 06:00:31;;;;;;;59.17;13.10;;;;;;;;;;4942253;28;20546;-86
2021/11/06 06:03:35;;;;;;;22.63;13.27;;;;;;;;;;4941952;28;20626;-86
2021/11/06 06:06:39;;;;;;;38.17;14.60;;;;;;;;;;4964129;28;21027;-86
2021/11/06 06:09:43;;;;;;;90.73;10.90;;;;;;;;;;4952952;28;21146;-86
2021/11/06 06:12:51;;;;;;;23.13;10.43;;;;;;;;;;4952931;28;20543;-86
2021/11/06 06:15:55;;;;;;;64.23;9.83;;;;;;;;;;4953051;28;20542;-86
2021/11/06 06:18:59;;;;;;;38.03;10.10;;;;;;;;;;4941380;28;20547;-86
2021/11/06 06:22:03;;;;;;;15.90;11.10;;;;;;;;;;4941642;28;20555;-86
2021/11/06 06:25:10;;;;;;;60.73;11.47;;;;;;;;;;4941656;28;20646;-86
2021/11/06 06:28:14;;;;;;;16.97;11.57;;;;;;;;;;4963079;28;20539;-86
2021/11/06 06:31:18;;;;;;;28.10;11.70;;;;;;;;;;4963525;28;20546;-86
2021/11/06 06:34:22;;;;;;;142.07;13.63;;;;;;;;;;4963322;28;20634;-86
2021/11/06 06:37:26;;;;;;;28.37;13.73;;;;;;;;;;4941433;28;20605;-86
2021/11/06 06:40:31;;;;;;;21.43;13.40;;;;;;;;;;4952533;28;20562;-86
2021/11/06 06:43:35;;;;;;;23.87;12.73;;;;;;;;;;4952200;28;20626;-86
2021/11/06 06:46:38;;;;;;;22.27;12.13;;;;;;;;;;4941707;28;20550;-85
2021/11/06 06:49:44;;;;;;;23.40;13.13;;;;;;;;;;4941240;28;20895;-85
2021/11/06 06:52:49;;;;;;;21.87;12.67;;;;;;;;;;4941812;28;20551;-86
2021/11/06 06:55:53;;;;;;;37.00;12.70;;;;;;;;;;4951947;28;21120;-86
2021/11/06 06:58:57;;;;;;;27.33;13.17;;;;;;;;;;4941403;28;20598;-86
2021/11/06 07:02:03;;;;;;;74.97;15.50;;;;;;;;;;4963538;28;20546;-86
2021/11/06 07:05:08;;;;;;;96.47;16.83;;;;;;;;;;4951791;28;20659;-86
2021/11/06 07:08:13;;;;;;;34.57;15.63;;;;;;;;;;4940960;28;20904;-86
2021/11/06 07:11:17;;;;;;;21.17;13.00;;;;;;;;;;4940807;28;20639;-86
2021/11/06 07:14:21;;;;;;;19.30;11.47;;;;;;;;;;4941171;28;20630;-86
2021/11/06 07:17:25;;;;;;;36.73;11.20;;;;;;;;;;4940792;28;20952;-86
2021/11/06 07:20:29;;;;;;;21.07;13.13;;;;;;;;;;4963088;28;20895;-86
2021/11/06 07:23:33;;;;;;;20.93;13.87;;;;;;;;;;4951877;28;20974;-86
2021/11/06 07:26:38;;;;;;;27.83;11.23;;;;;;;;;;4951734;28;20543;-86
2021/11/06 07:29:42;;;;;;;56.27;12.17;;;;;;;;;;4941122;28;20174;-86
2021/11/06 07:32:46;;;;;;;18.10;11.70;;;;;;;;;;4951796;28;20182;-86
2021/11/06 07:35:50;;;;;;;66.77;15.47;;;;;;;;;;4951665;28;20183;-86
2021/11/06 07:38:54;;;;;;;92.00;14.93;;;;;;;;;;4952662;28;20214;-86
2021/11/06 07:41:58;;;;;;;23.53;12.80;;;;;;;;;;4954868;28;20187;-86
2021/11/06 07:45:04;;;;;;;20.90;12.30;;;;;;;;;;4955083;28;20214;-86
2021/11/06 07:48:08;;;;;;;42.97;13.57;;;;;;;;;;4955154;28;20179;-86
2021/11/06 07:51:12;;;;;;;24.70;13.50;;;;;;;;;;4955055;28;20175;-86
2021/11/06 07:54:17;;;;;;;49.30;14.40;;;;;;;;;;4943942;28;20218;-86
2021/11/06 07:57:21;;;;;;;44.50;14.07;;;;;;;;;;4943984;28;20179;-86
2021/11/06 08:00:26;;;;;;;68.73;14.97;;;;;;;;;;4944151;28;20195;-86
2021/11/06 08:03:31;;;;;;;41.07;14.47;;;;;;;;;;4965788;28;20223;-86
2021/11/06 08:06:37;;;;;;;69.57;14.83;;;;;;;;;;4943885;28;20187;-87
2021/11/06 08:09:41;;;;;;;73.77;14.43;;;;;;;;;;4943786;28;20175;-86
2021/11/06 08:12:45;;;;;;;53.50;14.63;;;;;;;;;;4955087;28;20191;-86
2021/11/06 08:15:50;;;;;;;48.10;13.23;;;;;;;;;;4954630;28;20182;-86
2021/11/06 08:18:54;;;;;;;55.53;15.37;;;;;;;;;;4943567;28;20206;-86
2021/11/06 08:21:58;;;;;;;42.77;12.40;;;;;;;;;;4954640;28;20186;-86
2021/11/06 08:25:06;;;;;;;45.93;13.20;;;;;;;;;;4966454;28;20238;-86
2021/11/06 08:28:10;;;;;;;31.13;12.73;;;;;;;;;;4954571;28;20191;-86
2021/11/06 08:31:14;;;;;;;61.87;13.07;;;;;;;;;;4954625;28;20198;-86
2021/11/06 08:34:18;;;;;;;33.83;14.70;;;;;;;;;;4964984;28;20214;-86
2021/11/06 08:37:23;;;;;;;18.83;12.40;;;;;;;;;;4943181;28;20183;-86
2021/11/06 08:40:28;;;;;;;21.90;12.40;;;;;;;;;;4943459;28;20179;-86
2021/11/06 08:43:33;;;;;;;24.43;13.03;;;;;;;;;;4943138;28;20214;-86
2021/11/06 08:46:37;;;;;;;19.17;13.90;;;;;;;;;;4943261;28;20179;-86
2021/11/06 08:49:41;;;;;;;68.63;15.13;;;;;;;;;;4953693;28;20174;-86
2021/11/06 08:52:46;;;;;;;22.87;14.90;;;;;;;;;;4953925;28;20187;-86
2021/11/06 08:55:50;;;;;;;25.10;14.03;;;;;;;;;;4953496;28;20191;-86
2021/11/06 08:58:56;;;;;;;19.50;13.30;;;;;;;;;;4953493;28;20214;-86
2021/11/06 09:02:00;;;;;;;27.67;13.77;;;;;;;;;;4964592;28;20183;-86
2021/11/06 09:05:07;;;;;;;31.93;12.90;;;;;;;;;;4964126;28;20222;-86
2021/11/06 09:08:11;;;;;;;21.83;13.30;;;;;;;;;;4953415;28;20573;-86
2021/11/06 09:11:16;;;;;;;33.10;14.50;;;;;;;;;;4964242;28;20652;-86
2021/11/06 09:14:21;;;;;;;23.37;14.27;;;;;;;;;;4953203;28;20222;-86
2021/11/06 09:17:25;;;;;;;20.17;13.30;;;;;;;;;;4953260;28;20175;-86
2021/11/06 09:20:29;;;;;;;35.83;14.90;;;;;;;;;;4942334;28;20547;-86
2021/11/06 09:23:34;;;;;;;20.00;13.13;;;;;;;;;;4942080;28;20226;-86
2021/11/06 09:26:41;;;;;;;22.53;14.53;;;;;;;;;;4942186;28;20518;-87
2021/11/06 09:29:45;;;;;;;20.60;14.20;;;;;;;;;;4942010;28;20171;-86
2021/11/06 09:32:50;;;;;;;22.70;15.03;;;;;;;;;;4942043;28;20182;-87
2021/11/06 09:35:54;;;;;;;25.17;16.57;;;;;;;;;;4952938;28;20187;-86
2021/11/06 09:39:01;;;;;;;27.10;18.23;;;;;;;;;;4952907;28;20202;-86
2021/11/06 09:42:05;;;;;;;24.17;15.93;;;;;;;;;;4942058;28;20179;-86
2021/11/06 09:45:12;;;;;;;26.00;16.43;;;;;;;;;;4952521;28;20215;-86
2021/11/06 09:48:16;;;;;;;23.23;16.07;;;;;;;;;;4941931;28;20175;-87
2021/11/06 09:51:21;;;;;;;50.53;34.00;;;;;;;;;;4952586;28;20182;-86
2021/11/06 09:54:25;;;;;;;28.43;19.03;;;;;;;;;;4952443;28;20218;-86
2021/11/06 09:57:29;;;;;;;27.60;17.50;;;;;;;;;;4941725;28;20182;-86
2021/11/06 10:00:33;;;;;;;26.33;17.80;;;;;;;;;;4941551;28;20650;-86
2021/11/06 10:03:38;;;;;;;25.07;16.87;;;;;;;;;;4952247;28;20709;-86
2021/11/06 10:06:46;;;;;;;29.33;16.80;;;;;;;;;;4952098;28;20199;-87
2021/11/06 10:09:55;;;;;;;25.03;15.90;;;;;;;;;;4941357;28;20183;-86
2021/11/06 10:13:00;;;;;;;31.80;17.67;;;;;;;;;;4952309;28;20183;-87
2021/11/06 10:16:06;;;;;;;26.87;17.83;;;;;;;;;;4941445;28;20528;-86
2021/11/06 10:19:16;;;;;;;27.80;18.37;;;;;;;;;;4941082;28;20222;-86
2021/11/06 10:22:25;;;;;;;26.17;17.23;;;;;;;;;;4952255;28;20178;-86
2021/11/06 10:25:30;;;;;;;26.77;17.67;;;;;;;;;;4941031;28;20226;-87
2021/11/06 10:28:35;;;;;;;27.03;16.73;;;;;;;;;;4952389;28;20520;-87
2021/11/06 10:31:54;;;;;;;28.90;17.23;;;;;;;;;;4962849;28;20194;-86
2021/11/06 10:35:25;;;;;;;28.33;18.10;;;;;;;;;;4952094;28;20222;-86
2021/11/06 10:38:30;;;;;;;30.23;18.60;;;;;;;;;;4952181;28;20214;-86
2021/11/06 10:41:37;;;;;;;28.30;17.90;;;;;;;;;;4952060;28;20630;-87
2021/11/06 10:44:42;;;;;;;32.33;18.43;;;;;;;;;;4951502;28;20222;-87
2021/11/06 10:47:55;;;;;;;27.83;18.23;;;;;;;;;;4952002;28;20179;-86
2021/11/06 10:51:12;;;;;;;30.73;18.90;;;;;;;;;;4963124;28;20187;-86
2021/11/06 10:54:16;;;;;;;26.57;17.83;;;;;;;;;;4940658;28;20219;-86
2021/11/06 10:57:24;;;;;;;30.13;19.27;;;;;;;;;;4951975;28;20179;-86
2021/11/06 11:00:29;;;;;;;27.57;17.87;;;;;;;;;;4941017;28;20183;-86
2021/11/06 11:03:37;;;;;;;28.67;18.13;;;;;;;;;;4951808;28;20222;-87
2021/11/06 11:06:56;;;;;;;30.53;19.53;;;;;;;;;;4951868;28;20626;-87
2021/11/06 11:10:23;;;;;;;35.37;21.57;;;;;;;;;;4951758;28;20175;-87
2021/11/06 11:13:27;;;;;;;30.27;19.20;;;;;;;;;;4941153;28;20512;-87
2021/11/06 11:16:33;;;;;;;37.57;21.67;;;;;;;;;;4944818;28;20187;-87
2021/11/06 11:19:44;;;;;;;29.73;18.73;;;;;;;;;;4944434;28;20206;-87
2021/11/06 11:23:11;;;;;;;28.90;19.17;;;;;;;;;;4955349;28;20186;-87
2021/11/06 11:26:18;;;;;;;28.33;17.80;;;;;;;;;;4973712;23;20240;-86
2021/11/06 11:29:27;;;;;;;29.00;19.07;;;;;;;;;;4924293;29;20192;-86
2021/11/06 11:32:31;;;;;;;30.93;19.73;;;;;;;;;;4913804;29;20184;-86
2021/11/06 11:35:36;;;;;;;34.50;20.97;;;;;;;;;;4923593;29;20216;-86
2021/11/06 11:38:41;;;;;;;31.17;19.60;;;;;;;;;;4912996;29;20251;-86
2021/11/06 11:42:06;;;;;;;31.63;19.50;;;;;;;;;;4921764;29;20199;-86
2021/11/06 11:45:36;;;;;;;25.37;17.67;;;;;;;;;;4910188;29;20239;-86
2021/11/06 11:48:51;;;;;;;24.80;16.87;;;;;;;;;;4920727;29;20205;-86
2021/11/06 11:51:55;;;;;;;33.27;23.07;;;;;;;;;;4920908;29;20536;-87
2021/11/06 11:55:08;;;;;;;29.77;19.00;;;;;;;;;;4920999;29;20204;-87
2021/11/06 11:58:12;;;;;;;24.93;17.57;;;;;;;;;;4931922;29;20334;-86
2021/11/06 12:01:19;;;;;;;20.93;15.30;;;;;;;;;;4921233;29;20191;-87
2021/11/06 12:04:24;;;;;;;22.67;15.60;;;;;;;;;;4921099;29;20199;-87
2021/11/06 12:07:28;;;;;;;21.23;15.27;;;;;;;;;;4932269;29;20191;-86
2021/11/06 12:10:34;;;;;;;21.93;15.80;;;;;;;;;;4916230;29;20188;-86
2021/11/06 12:13:40;;;;;;;25.63;16.73;;;;;;;;;;4913003;29;20188;-86
2021/11/06 12:16:57;;;;;;;23.43;16.57;;;;;;;;;;4917033;29;20594;-86
2021/11/06 12:20:24;;;;;;;24.57;16.20;;;;;;;;;;4925713;29;20216;-86
2021/11/06 12:23:30;;;;;;;24.80;17.10;;;;;;;;;;4919888;29;20192;-86
2021/11/06 12:26:56;;;;;;;27.30;18.97;;;;;;;;;;4936687;29;20278;-87
2021/11/06 12:30:02;;;;;;;28.50;19.57;;;;;;;;;;4920752;29;20192;-86
2021/11/06 12:33:07;;;;;;;29.43;19.43;;;;;;;;;;4937826;29;20187;-86
2021/11/06 12:36:18;;;;;;;26.57;18.33;;;;;;;;;;4927960;29;20571;-85
2021/11/06 12:39:45;;;;;;;28.53;20.03;;;;;;;;;;4904070;29;20230;-85
2021/11/06 12:43:11;;;;;;;26.73;18.40;;;;;;;;;;4916176;29;20190;-86
2021/11/06 12:46:23;;;;;;;24.67;17.70;;;;;;;;;;4931070;29;20226;-86
2021/11/06 12:49:28;;;;;;;28.83;19.17;;;;;;;;;;4931548;29;20685;-85
2021/11/06 12:52:40;;;;;;;24.27;17.47;;;;;;;;;;4927600;29;20207;-86
2021/11/06 12:55:45;;;;;;;28.00;18.67;;;;;;;;;;4941527;29;20234;-85
2021/11/06 12:59:05;;;;;;;25.87;19.80;;;;;;;;;;4920704;29;20187;-86
2021/11/06 13:02:09;;;;;;;26.17;18.77;;;;;;;;;;4912748;29;20203;-86
2021/11/06 13:05:13;;;;;;;26.43;18.87;;;;;;;;;;4913187;29;20195;-85
2021/11/06 13:08:18;;;;;;;28.07;18.57;;;;;;;;;;4949459;29;20218;-86
2021/11/06 13:11:23;;;;;;;25.63;19.17;;;;;;;;;;4911620;29;20195;-86
2021/11/06 13:14:49;;;;;;;29.53;20.07;;;;;;;;;;4912141;29;20198;-86
2021/11/06 13:17:53;;;;;;;26.47;18.80;;;;;;;;;;4923374;29;20207;-88
2021/11/06 13:20:57;;;;;;;28.30;18.90;;;;;;;;;;4925994;29;20226;-87
2021/11/06 13:24:02;;;;;;;24.93;17.63;;;;;;;;;;4919519;29;20194;-87
2021/11/06 13:27:06;;;;;;;24.33;17.53;;;;;;;;;;4918811;29;20230;-87
2021/11/06 13:30:25;;;;;;;25.33;19.03;;;;;;;;;;4900941;29;20194;-87
2021/11/06 13:33:43;;;;;;;29.27;19.00;;;;;;;;;;4922287;29;20187;-87
2021/11/06 13:36:47;;;;;;;24.67;17.63;;;;;;;;;;4900261;29;20222;-87
2021/11/06 13:40:02;;;;;;;23.87;17.20;;;;;;;;;;4905353;29;20223;-88
2021/11/06 13:43:24;;;;;;;22.67;16.00;;;;;;;;;;4919668;29;20190;-88
2021/11/06 13:46:51;;;;;;;23.87;15.80;;;;;;;;;;4919334;29;20222;-87
2021/11/06 13:49:58;;;;;;;23.37;16.43;;;;;;;;;;4913240;29;20188;-87
2021/11/06 13:53:05;;;;;;;21.60;15.80;;;;;;;;;;4916835;29;20207;-86
2021/11/06 13:56:09;;;;;;;23.07;17.07;;;;;;;;;;4933466;29;20223;-87
2021/11/06 13:59:16;;;;;;;23.20;17.07;;;;;;;;;;4933204;29;20223;-87
2021/11/06 14:02:23;;;;;;;23.80;16.27;;;;;;;;;;4922452;29;20544;-86
2021/11/06 14:05:27;;;;;;;25.30;17.33;;;;;;;;;;4922247;29;20716;-87
2021/11/06 14:08:31;;;;;;;23.63;17.20;;;;;;;;;;4922356;29;20211;-87
2021/11/06 14:12:08;;;;;;;25.23;16.67;;;;;;;;;;4933183;29;20199;-87
2021/11/06 14:15:36;;;;;;;24.80;16.93;;;;;;;;;;4921934;29;20687;-87
2021/11/06 14:18:43;;;;;;;24.10;17.57;;;;;;;;;;4933223;29;20183;-87
2021/11/06 14:21:56;;;;;;;24.63;17.47;;;;;;;;;;4944331;29;20552;-86
2021/11/06 14:25:03;;;;;;;24.47;17.43;;;;;;;;;;4922334;29;20203;-86
2021/11/06 14:28:20;;;;;;;25.23;18.60;;;;;;;;;;4944150;29;20179;-87
2021/11/06 14:31:29;;;;;;;27.33;19.43;;;;;;;;;;4932940;29;20195;-87
2021/11/06 14:34:34;;;;;;;26.90;18.90;;;;;;;;;;4922574;29;20524;-87
2021/11/06 14:37:38;;;;;;;25.30;18.27;;;;;;;;;;4944339;29;20183;-86
2021/11/06 14:41:01;;;;;;;25.50;18.00;;;;;;;;;;4933077;29;20207;-87
2021/11/06 14:44:08;;;;;;;27.40;18.27;;;;;;;;;;4944334;29;20184;-87
2021/11/06 14:47:15;;;;;;;22.97;16.73;;;;;;;;;;4922109;29;20219;-86
2021/11/06 14:50:24;;;;;;;25.93;18.23;;;;;;;;;;4935970;29;20191;-86
2021/11/06 14:53:28;;;;;;;25.33;18.30;;;;;;;;;;4926258;29;20627;-87
2021/11/06 14:56:39;;;;;;;25.67;18.77;;;;;;;;;;4926122;29;20222;-86
2021/11/06 14:59:44;;;;;;;25.10;16.87;;;;;;;;;;4936973;29;20215;-86
2021/11/06 15:02:56;;;;;;;25.10;17.60;;;;;;;;;;4925885;29;20183;-87
2021/11/06 15:06:09;;;;;;;25.60;18.17;;;;;;;;;;4925809;29;20223;-86
2021/11/06 15:09:14;;;;;;;27.43;18.87;;;;;;;;;;4925996;29;20183;-86
2021/11/06 15:12:20;;;;;;;29.67;19.10;;;;;;;;;;4926021;29;20183;-87
2021/11/06 15:15:24;;;;;;;24.97;17.57;;;;;;;;;;4925462;29;20219;-86
2021/11/06 15:18:31;;;;;;;31.00;18.43;;;;;;;;;;4936570;29;20199;-86
2021/11/06 15:21:36;;;;;;;24.80;18.07;;;;;;;;;;4925536;29;20227;-85
2021/11/06 15:24:41;;;;;;;25.00;18.07;;;;;;;;;;4925662;29;20543;-86
2021/11/06 15:27:25;;;;;;;26.37;18.20;;;;;;;;;;4904115;23;20729;-71
2021/11/06 15:30:30;;;;;;;30.93;20.37;;;;;;;;;;4940483;29;20184;-71
2021/11/06 15:33:34;;;;;;;26.80;18.30;;;;;;;;;;4938849;29;20192;-71
2021/11/06 15:36:38;;;;;;;26.80;18.23;;;;;;;;;;4942688;29;20180;-71
2021/11/06 15:39:44;;;;;;;27.40;18.33;;;;;;;;;;4938797;29;20207;-71
2021/11/06 15:42:49;;;;;;;27.87;18.77;;;;;;;;;;4938500;29;20201;-71
2021/11/06 15:45:53;;;;;;;33.30;21.90;;;;;;;;;;4938990;29;20188;-71
2021/11/06 15:48:58;;;;;;;34.53;23.13;;;;;;;;;;4937389;29;20188;-71
2021/11/06 15:52:07;;;;;;;33.90;22.77;;;;;;;;;;4948270;28;20219;-73
2021/11/06 15:55:13;;;;;;;32.00;22.33;;;;;;;;;;4938192;29;20204;-73
2021/11/06 15:58:17;;;;;;;35.33;22.40;;;;;;;;;;4937445;29;20188;-73
2021/11/06 16:01:22;;;;;;;36.23;24.87;;;;;;;;;;4934413;29;20215;-73
2021/11/06 16:04:27;;;;;;;61.50;36.47;;;;;;;;;;4915976;29;20214;-73
2021/11/06 16:07:32;;;;;;;92.23;50.20;;;;;;;;;;4940479;29;20192;-73
2021/11/06 16:10:36;;;;;;;58.93;37.03;;;;;;;;;;4934255;29;20571;-73
2021/11/06 16:13:41;;;;;;;57.70;34.57;;;;;;;;;;4923154;29;20177;-73
2021/11/06 16:16:45;;;;;;;62.03;35.87;;;;;;;;;;4933583;29;20619;-73
2021/11/06 16:19:49;;;;;;;56.37;34.60;;;;;;;;;;4924923;29;20196;-73
2021/11/06 16:22:53;;;;;;;50.77;30.87;;;;;;;;;;4903639;29;20194;-73
2021/11/06 16:25:58;;;;;;;47.43;29.67;;;;;;;;;;4916693;29;20200;-73
2021/11/06 16:29:03;;;;;;;43.63;27.83;;;;;;;;;;4912044;29;20192;-73
2021/11/06 16:32:08;;;;;;;34.87;22.10;;;;;;;;;;4933173;29;20216;-73
2021/11/06 16:35:13;;;;;;;34.50;22.27;;;;;;;;;;4933615;29;20196;-73
2021/11/06 16:38:17;;;;;;;34.40;21.70;;;;;;;;;;4934142;29;20184;-73
2021/11/06 16:41:22;;;;;;;32.07;20.03;;;;;;;;;;4933830;29;20232;-72
2021/11/06 16:44:26;;;;;;;31.13;20.57;;;;;;;;;;4933075;29;20583;-72
2021/11/06 16:47:32;;;;;;;32.77;20.33;;;;;;;;;;4933775;29;20196;-72
2021/11/06 16:50:37;;;;;;;32.67;20.20;;;;;;;;;;4934084;29;20220;-73
2021/11/06 16:53:43;;;;;;;29.10;18.60;;;;;;;;;;4933792;29;20204;-72
2021/11/06 16:56:47;;;;;;;29.60;19.27;;;;;;;;;;4925135;29;20189;-72
2021/11/06 16:59:51;;;;;;;27.13;18.03;;;;;;;;;;4913714;29;20193;-73
2021/11/06 17:02:56;;;;;;;26.77;16.93;;;;;;;;;;4921563;29;20208;-73
2021/11/06 17:06:09;;;;;;;31.57;18.70;;;;;;;;;;4922136;29;20184;-73
2021/11/06 17:09:22;;;;;;;28.57;18.13;;;;;;;;;;4933543;29;20200;-73
2021/11/06 17:12:27;;;;;;;28.00;18.17;;;;;;;;;;4926373;29;20738;-72
2021/11/06 17:15:31;;;;;;;29.40;17.80;;;;;;;;;;4933757;29;20187;-73
2021/11/06 17:18:36;;;;;;;28.30;18.77;;;;;;;;;;4937968;29;20192;-72
2021/11/06 17:21:40;;;;;;;30.90;19.73;;;;;;;;;;4930409;29;20235;-72
2021/11/06 17:24:45;;;;;;;26.63;17.93;;;;;;;;;;4917344;29;20215;-72
2021/11/06 17:27:50;;;;;;;36.30;20.90;;;;;;;;;;4915113;29;20196;-72
2021/11/06 17:30:54;;;;;;;30.40;18.67;;;;;;;;;;4932900;29;20219;-73
2021/11/06 17:33:59;;;;;;;30.70;18.90;;;;;;;;;;4933369;29;20520;-73
2021/11/06 17:37:04;;;;;;;25.70;17.70;;;;;;;;;;4933358;29;20196;-73
2021/11/06 17:40:10;;;;;;;33.67;19.73;;;;;;;;;;4933038;29;20199;-73
2021/11/06 17:43:14;;;;;;;161.57;56.13;;;;;;;;;;4921092;29;20208;-73
2021/11/06 17:46:18;;;;;;;53.13;26.73;;;;;;;;;;4921262;29;20187;-73
2021/11/06 17:49:25;;;;;;;38.87;22.20;;;;;;;;;;4932974;29;20196;-74
2021/11/06 17:52:31;;;;;;;74.30;39.10;;;;;;;;;;4931816;29;20228;-73
2021/11/06 17:55:35;;;;;;;64.57;35.00;;;;;;;;;;4932489;29;20216;-73
2021/11/06 17:58:41;;;;;;;72.37;38.30;;;;;;;;;;4931909;29;20184;-73
2021/11/06 18:01:45;;;;;;;95.63;41.57;;;;;;;;;;4931911;29;20794;-73
2021/11/06 18:04:52;;;;;;;54.47;29.87;;;;;;;;;;4932720;29;20204;-73